sensor_id;sensor_type;location;lat;lon;timestamp;temperature;humidity
21944;DHT22;11136;48.778;9.126;2023-04-01T00:00:54;9.40;99.90
21944;DHT22;11136;48.778;9.126;2023-04-01T00:03:21;9.40;99.90
21944;DHT22;11136;48.778;9.126;2023-04-01T00:05:47;9.40;99.90
21944;DHT22;11136;48.778;9.126;2023-04-01T00:08:13;9.40;99.90
21944;DHT22;11136;48.778;9.126;2023-04-01T00:10:38;9.40;99.90
21944;DHT22;11136;48.778;9.126;2023-04-01T00:13:04;9.40;99.90
21944;DHT22;11136;48.778;9.126;2023-04-01T00:15:30;9.40;99.90
21944;DHT22;11136;48.778;9.126;2023-04-01T00:17:56;9.40;99.90
21944;DHT22;11136;48.778;9.126;2023-04-01T00:20:22;9.40;99.90
21944;DHT22;11136;48.778;9.126;2023-04-01T00:22:47;9.40;99.90
21944;DHT22;11136;48.778;9.126;2023-04-01T00:25:13;9.40;99.90
21944;DHT22;11136;48.778;9.126;2023-04-01T00:27:40;9.40;99.90
21944;DHT22;11136;48.778;9.126;2023-04-01T00:30:06;9.30;99.90
21944;DHT22;11136;48.778;9.126;2023-04-01T00:32:32;9.40;99.90
21944;DHT22;11136;48.778;9.126;2023-04-01T00:34:58;9.40;99.90
21944;DHT22;11136;48.778;9.126;2023-04-01T00:37:25;9.40;99.90
21944;DHT22;11136;48.778;9.126;2023-04-01T00:39:51;9.40;99.90
21944;DHT22;11136;48.778;9.126;2023-04-01T00:42:16;9.40;99.90
21944;DHT22;11136;48.778;9.126;2023-04-01T00:44:45;9.40;99.90
21944;DHT22;11136;48.778;9.126;2023-04-01T00:47:12;9.40;99.90
21944;DHT22;11136;48.778;9.126;2023-04-01T00:49:40;9.50;99.90
21944;DHT22;11136;48.778;9.126;2023-04-01T00:52:08;9.40;99.90
21944;DHT22;11136;48.778;9.126;2023-04-01T00:54:36;9.40;99.90
21944;DHT22;11136;48.778;9.126;2023-04-01T00:57:06;9.30;99.90
21944;DHT22;11136;48.778;9.126;2023-04-01T00:59:40;9.30;99.90
21944;DHT22;11136;48.778;9.126;2023-04-01T01:02:09;9.20;99.90
21944;DHT22;11136;48.778;9.126;2023-04-01T01:04:36;9.30;99.90
21944;DHT22;11136;48.778;9.126;2023-04-01T01:07:09;9.30;99.90
21944;DHT22;11136;48.778;9.126;2023-04-01T01:09:47;9.30;99.90
21944;DHT22;11136;48.778;9.126;2023-04-01T01:12:31;9.30;99.90
21944;DHT22;11136;48.778;9.126;2023-04-01T01:17:51;9.30;99.90
21944;DHT22;11136;48.778;9.126;2023-04-01T01:32:17;9.40;99.90
21944;DHT22;11136;48.778;9.126;2023-04-01T01:37:51;9.40;99.90
21944;DHT22;11136;48.778;9.126;2023-04-01T01:40:17;9.40;99.90
21944;DHT22;11136;48.778;9.126;2023-04-01T01:42:50;9.40;99.90
21944;DHT22;11136;48.778;9.126;2023-04-01T01:45:19;9.40;99.90
21944;DHT22;11136;48.778;9.126;2023-04-01T01:47:48;9.40;99.90
21944;DHT22;11136;48.778;9.126;2023-04-01T01:50:15;9.40;99.90
21944;DHT22;11136;48.778;9.126;2023-04-01T01:52:42;9.40;99.90
21944;DHT22;11136;48.778;9.126;2023-04-01T01:55:31;9.40;99.90
21944;DHT22;11136;48.778;9.126;2023-04-01T01:57:59;9.40;99.90
21944;DHT22;11136;48.778;9.126;2023-04-01T02:00:26;9.40;99.90
21944;DHT22;11136;48.778;9.126;2023-04-01T02:02:52;9.40;99.90
21944;DHT22;11136;48.778;9.126;2023-04-01T02:05:21;9.40;99.90
21944;DHT22;11136;48.778;9.126;2023-04-01T02:08:05;9.40;99.90
21944;DHT22;11136;48.778;9.126;2023-04-01T02:10:35;9.40;99.90
21944;DHT22;11136;48.778;9.126;2023-04-01T02:13:08;9.40;99.90
21944;DHT22;11136;48.778;9.126;2023-04-01T02:15:40;9.40;99.90
21944;DHT22;11136;48.778;9.126;2023-04-01T02:18:07;9.40;99.90
21944;DHT22;11136;48.778;9.126;2023-04-01T02:20:34;9.40;99.90
21944;DHT22;11136;48.778;9.126;2023-04-01T02:23:02;9.40;99.90
21944;DHT22;11136;48.778;9.126;2023-04-01T02:25:30;9.40;99.90
21944;DHT22;11136;48.778;9.126;2023-04-01T02:27:59;9.40;99.90
21944;DHT22;11136;48.778;9.126;2023-04-01T02:30:27;9.40;99.90
21944;DHT22;11136;48.778;9.126;2023-04-01T02:32:55;9.40;99.90
21944;DHT22;11136;48.778;9.126;2023-04-01T02:35:22;9.40;99.90
21944;DHT22;11136;48.778;9.126;2023-04-01T02:37:50;9.40;99.90
21944;DHT22;11136;48.778;9.126;2023-04-01T02:40:18;9.30;99.90
21944;DHT22;11136;48.778;9.126;2023-04-01T02:42:44;9.30;99.90
21944;DHT22;11136;48.778;9.126;2023-04-01T02:45:10;9.30;99.90
21944;DHT22;11136;48.778;9.126;2023-04-01T02:47:36;9.30;99.90
21944;DHT22;11136;48.778;9.126;2023-04-01T02:50:02;9.20;99.90
21944;DHT22;11136;48.778;9.126;2023-04-01T02:52:29;9.20;99.90
21944;DHT22;11136;48.778;9.126;2023-04-01T02:54:55;9.20;99.90
21944;DHT22;11136;48.778;9.126;2023-04-01T02:57:21;9.20;99.90
21944;DHT22;11136;48.778;9.126;2023-04-01T02:59:47;9.20;99.90
21944;DHT22;11136;48.778;9.126;2023-04-01T03:02:13;9.20;99.90
21944;DHT22;11136;48.778;9.126;2023-04-01T03:04:39;9.20;99.90
21944;DHT22;11136;48.778;9.126;2023-04-01T03:07:05;9.10;99.90
21944;DHT22;11136;48.778;9.126;2023-04-01T03:09:30;9.20;99.90
21944;DHT22;11136;48.778;9.126;2023-04-01T03:11:56;9.20;99.90
21944;DHT22;11136;48.778;9.126;2023-04-01T03:14:22;9.20;99.90
21944;DHT22;11136;48.778;9.126;2023-04-01T03:16:47;9.20;99.90
21944;DHT22;11136;48.778;9.126;2023-04-01T03:19:13;9.30;99.90
21944;DHT22;11136;48.778;9.126;2023-04-01T03:21:38;9.20;99.90
21944;DHT22;11136;48.778;9.126;2023-04-01T03:24:05;9.20;99.90
21944;DHT22;11136;48.778;9.126;2023-04-01T03:26:31;9.20;99.90
21944;DHT22;11136;48.778;9.126;2023-04-01T03:28:57;9.20;99.90
21944;DHT22;11136;48.778;9.126;2023-04-01T03:31:22;9.20;99.90
21944;DHT22;11136;48.778;9.126;2023-04-01T03:33:48;9.20;99.90
21944;DHT22;11136;48.778;9.126;2023-04-01T03:36:13;9.20;99.90
21944;DHT22;11136;48.778;9.126;2023-04-01T03:38:44;9.40;99.90
21944;DHT22;11136;48.778;9.126;2023-04-01T03:41:16;9.20;99.90
21944;DHT22;11136;48.778;9.126;2023-04-01T03:43:42;9.20;99.90
21944;DHT22;11136;48.778;9.126;2023-04-01T03:46:08;9.20;99.90
21944;DHT22;11136;48.778;9.126;2023-04-01T03:48:33;9.20;99.90
21944;DHT22;11136;48.778;9.126;2023-04-01T03:51:00;9.10;99.90
21944;DHT22;11136;48.778;9.126;2023-04-01T03:53:25;9.20;99.90
21944;DHT22;11136;48.778;9.126;2023-04-01T03:55:52;9.20;99.90
21944;DHT22;11136;48.778;9.126;2023-04-01T03:58:18;9.10;99.90
21944;DHT22;11136;48.778;9.126;2023-04-01T04:00:44;9.10;99.90
21944;DHT22;11136;48.778;9.126;2023-04-01T04:03:09;9.10;99.90
21944;DHT22;11136;48.778;9.126;2023-04-01T04:05:35;9.10;99.90
21944;DHT22;11136;48.778;9.126;2023-04-01T04:08:01;9.10;99.90
21944;DHT22;11136;48.778;9.126;2023-04-01T04:10:27;9.00;99.90
21944;DHT22;11136;48.778;9.126;2023-04-01T04:12:54;9.00;99.90
21944;DHT22;11136;48.778;9.126;2023-04-01T04:15:20;9.00;99.90
21944;DHT22;11136;48.778;9.126;2023-04-01T04:17:45;9.00;99.90
21944;DHT22;11136;48.778;9.126;2023-04-01T04:20:11;9.00;99.90
21944;DHT22;11136;48.778;9.126;2023-04-01T04:22:37;9.00;99.90
21944;DHT22;11136;48.778;9.126;2023-04-01T04:25:03;9.00;99.90
21944;DHT22;11136;48.778;9.126;2023-04-01T04:27:28;9.00;99.90
21944;DHT22;11136;48.778;9.126;2023-04-01T04:29:54;9.00;99.90
21944;DHT22;11136;48.778;9.126;2023-04-01T04:32:20;8.90;99.90
21944;DHT22;11136;48.778;9.126;2023-04-01T04:34:45;8.90;99.90
21944;DHT22;11136;48.778;9.126;2023-04-01T04:37:11;8.90;99.90
21944;DHT22;11136;48.778;9.126;2023-04-01T04:39:36;8.90;99.90
21944;DHT22;11136;48.778;9.126;2023-04-01T04:42:02;8.90;99.90
21944;DHT22;11136;48.778;9.126;2023-04-01T04:44:28;8.90;99.90
21944;DHT22;11136;48.778;9.126;2023-04-01T04:46:53;8.90;99.90
21944;DHT22;11136;48.778;9.126;2023-04-01T04:49:19;8.90;99.90
21944;DHT22;11136;48.778;9.126;2023-04-01T04:51:44;8.80;99.90
21944;DHT22;11136;48.778;9.126;2023-04-01T04:54:10;8.80;99.90
21944;DHT22;11136;48.778;9.126;2023-04-01T04:56:35;8.80;99.90
21944;DHT22;11136;48.778;9.126;2023-04-01T04:59:01;8.80;99.90
21944;DHT22;11136;48.778;9.126;2023-04-01T05:01:27;8.80;99.90
21944;DHT22;11136;48.778;9.126;2023-04-01T05:03:53;8.80;99.90
21944;DHT22;11136;48.778;9.126;2023-04-01T05:06:19;8.80;99.90
21944;DHT22;11136;48.778;9.126;2023-04-01T05:08:45;8.80;99.90
21944;DHT22;11136;48.778;9.126;2023-04-01T05:11:16;8.80;99.90
21944;DHT22;11136;48.778;9.126;2023-04-01T05:13:43;8.80;99.90
21944;DHT22;11136;48.778;9.126;2023-04-01T05:16:19;8.80;99.90
21944;DHT22;11136;48.778;9.126;2023-04-01T05:18:46;8.80;99.90
21944;DHT22;11136;48.778;9.126;2023-04-01T05:21:13;8.80;99.90
21944;DHT22;11136;48.778;9.126;2023-04-01T05:23:39;8.80;99.90
21944;DHT22;11136;48.778;9.126;2023-04-01T05:26:05;8.80;99.90
21944;DHT22;11136;48.778;9.126;2023-04-01T05:28:32;8.80;99.90
21944;DHT22;11136;48.778;9.126;2023-04-01T05:31:04;8.80;99.90
21944;DHT22;11136;48.778;9.126;2023-04-01T05:33:30;8.80;99.90
21944;DHT22;11136;48.778;9.126;2023-04-01T05:35:56;8.80;99.90
21944;DHT22;11136;48.778;9.126;2023-04-01T05:38:30;8.80;99.90
21944;DHT22;11136;48.778;9.126;2023-04-01T05:41:02;8.80;99.90
21944;DHT22;11136;48.778;9.126;2023-04-01T05:43:28;8.80;99.90
21944;DHT22;11136;48.778;9.126;2023-04-01T05:45:55;8.80;99.90
21944;DHT22;11136;48.778;9.126;2023-04-01T05:48:20;8.80;99.90
21944;DHT22;11136;48.778;9.126;2023-04-01T05:50:45;8.80;99.90
21944;DHT22;11136;48.778;9.126;2023-04-01T05:53:11;8.90;99.90
21944;DHT22;11136;48.778;9.126;2023-04-01T05:55:37;8.90;99.90
21944;DHT22;11136;48.778;9.126;2023-04-01T05:58:02;8.90;99.90
21944;DHT22;11136;48.778;9.126;2023-04-01T06:00:28;8.90;99.90
21944;DHT22;11136;48.778;9.126;2023-04-01T06:02:54;9.00;99.90
21944;DHT22;11136;48.778;9.126;2023-04-01T06:05:22;9.00;99.90
21944;DHT22;11136;48.778;9.126;2023-04-01T06:07:48;9.00;99.90
21944;DHT22;11136;48.778;9.126;2023-04-01T06:10:19;9.00;99.90
21944;DHT22;11136;48.778;9.126;2023-04-01T06:12:48;9.10;99.90
21944;DHT22;11136;48.778;9.126;2023-04-01T06:16:18;9.10;99.90
21944;DHT22;11136;48.778;9.126;2023-04-01T06:24:09;9.10;99.90
21944;DHT22;11136;48.778;9.126;2023-04-01T06:29:25;9.20;99.90
21944;DHT22;11136;48.778;9.126;2023-04-01T06:40:17;9.30;99.90
21944;DHT22;11136;48.778;9.126;2023-04-01T06:43:01;9.30;99.90
21944;DHT22;11136;48.778;9.126;2023-04-01T06:48:20;9.30;99.90
21944;DHT22;11136;48.778;9.126;2023-04-01T06:54:04;9.30;99.90
21944;DHT22;11136;48.778;9.126;2023-04-01T06:56:32;9.30;99.90
21944;DHT22;11136;48.778;9.126;2023-04-01T06:59:02;9.30;99.90
21944;DHT22;11136;48.778;9.126;2023-04-01T07:01:38;9.40;99.90
21944;DHT22;11136;48.778;9.126;2023-04-01T07:04:11;9.40;99.90
21944;DHT22;11136;48.778;9.126;2023-04-01T07:06:55;9.40;99.90
21944;DHT22;11136;48.778;9.126;2023-04-01T07:09:31;9.50;99.90
21944;DHT22;11136;48.778;9.126;2023-04-01T07:12:02;9.50;99.90
21944;DHT22;11136;48.778;9.126;2023-04-01T07:14:36;9.50;99.90
21944;DHT22;11136;48.778;9.126;2023-04-01T07:17:12;9.50;99.90
21944;DHT22;11136;48.778;9.126;2023-04-01T07:22:42;9.50;99.90
21944;DHT22;11136;48.778;9.126;2023-04-01T07:25:25;9.50;99.90
21944;DHT22;11136;48.778;9.126;2023-04-01T07:28:14;9.50;99.90
21944;DHT22;11136;48.778;9.126;2023-04-01T07:31:03;9.50;99.90
21944;DHT22;11136;48.778;9.126;2023-04-01T07:41:38;9.50;99.90
21944;DHT22;11136;48.778;9.126;2023-04-01T07:44:25;9.50;99.90
21944;DHT22;11136;48.778;9.126;2023-04-01T07:49:56;9.50;99.90
21944;DHT22;11136;48.778;9.126;2023-04-01T07:52:38;9.50;99.90
21944;DHT22;11136;48.778;9.126;2023-04-01T08:05:57;9.60;99.90
21944;DHT22;11136;48.778;9.126;2023-04-01T08:22:33;9.60;99.90
21944;DHT22;11136;48.778;9.126;2023-04-01T08:25:04;9.60;99.90
21944;DHT22;11136;48.778;9.126;2023-04-01T08:27:48;9.70;99.90
21944;DHT22;11136;48.778;9.126;2023-04-01T08:30:35;9.60;99.90
21944;DHT22;11136;48.778;9.126;2023-04-01T08:33:22;9.60;99.90
21944;DHT22;11136;48.778;9.126;2023-04-01T08:35:56;9.70;99.90
21944;DHT22;11136;48.778;9.126;2023-04-01T08:38:30;9.70;99.90
21944;DHT22;11136;48.778;9.126;2023-04-01T08:41:25;9.70;99.90
21944;DHT22;11136;48.778;9.126;2023-04-01T08:52:36;9.40;99.90
21944;DHT22;11136;48.778;9.126;2023-04-01T09:00:47;9.10;99.90
21944;DHT22;11136;48.778;9.126;2023-04-01T09:06:29;9.10;99.90
21944;DHT22;11136;48.778;9.126;2023-04-01T09:19:25;9.30;99.90
21944;DHT22;11136;48.778;9.126;2023-04-01T09:24:52;9.50;99.90
21944;DHT22;11136;48.778;9.126;2023-04-01T09:33:59;9.70;99.90
21944;DHT22;11136;48.778;9.126;2023-04-01T09:39:53;9.90;99.90
21944;DHT22;11136;48.778;9.126;2023-04-01T10:13:36;9.80;99.90
21944;DHT22;11136;48.778;9.126;2023-04-01T10:21:51;10.00;99.90
21944;DHT22;11136;48.778;9.126;2023-04-01T10:33:23;10.30;99.90
21944;DHT22;11136;48.778;9.126;2023-04-01T10:47:26;10.60;99.90
21944;DHT22;11136;48.778;9.126;2023-04-01T10:50:39;10.70;99.90
21944;DHT22;11136;48.778;9.126;2023-04-01T11:19:04;10.80;99.90
21944;DHT22;11136;48.778;9.126;2023-04-01T11:30:53;10.90;99.90
21944;DHT22;11136;48.778;9.126;2023-04-01T11:33:26;11.00;99.90
21944;DHT22;11136;48.778;9.126;2023-04-01T11:41:31;11.10;99.90
21944;DHT22;11136;48.778;9.126;2023-04-01T11:44:16;11.10;99.90
21944;DHT22;11136;48.778;9.126;2023-04-01T11:46:52;11.10;99.90
21944;DHT22;11136;48.778;9.126;2023-04-01T11:52:59;11.20;99.90
21944;DHT22;11136;48.778;9.126;2023-04-01T11:56:02;11.20;99.90
21944;DHT22;11136;48.778;9.126;2023-04-01T11:58:47;11.20;99.90
21944;DHT22;11136;48.778;9.126;2023-04-01T12:01:44;11.10;99.90
21944;DHT22;11136;48.778;9.126;2023-04-01T12:07:19;11.00;99.90
21944;DHT22;11136;48.778;9.126;2023-04-01T12:26:40;10.80;99.90
21944;DHT22;11136;48.778;9.126;2023-04-01T12:29:19;10.80;99.90
21944;DHT22;11136;48.778;9.126;2023-04-01T12:45:45;11.00;99.90
21944;DHT22;11136;48.778;9.126;2023-04-01T12:58:02;11.20;99.90
21944;DHT22;11136;48.778;9.126;2023-04-01T13:08:55;11.30;99.90
21944;DHT22;11136;48.778;9.126;2023-04-01T13:11:34;11.30;99.90
21944;DHT22;11136;48.778;9.126;2023-04-01T13:14:24;11.30;99.90
21944;DHT22;11136;48.778;9.126;2023-04-01T13:17:01;11.20;99.90
21944;DHT22;11136;48.778;9.126;2023-04-01T13:19:39;11.20;99.90
21944;DHT22;11136;48.778;9.126;2023-04-01T13:27:44;11.20;99.90
21944;DHT22;11136;48.778;9.126;2023-04-01T13:33:17;11.30;99.90
21944;DHT22;11136;48.778;9.126;2023-04-01T13:36:06;11.30;99.90
21944;DHT22;11136;48.778;9.126;2023-04-01T13:38:46;11.30;99.90
21944;DHT22;11136;48.778;9.126;2023-04-01T13:44:00;11.40;99.90
21944;DHT22;11136;48.778;9.126;2023-04-01T13:47:02;11.40;99.90
21944;DHT22;11136;48.778;9.126;2023-04-01T13:52:39;11.30;99.90
21944;DHT22;11136;48.778;9.126;2023-04-01T13:57:52;11.30;99.90
21944;DHT22;11136;48.778;9.126;2023-04-01T14:05:51;11.40;99.90
21944;DHT22;11136;48.778;9.126;2023-04-01T14:11:17;11.50;99.90
21944;DHT22;11136;48.778;9.126;2023-04-01T14:13:59;11.60;99.90
21944;DHT22;11136;48.778;9.126;2023-04-01T14:20:22;11.60;99.90
21944;DHT22;11136;48.778;9.126;2023-04-01T14:28:15;11.60;99.90
21944;DHT22;11136;48.778;9.126;2023-04-01T14:32:03;11.50;99.90
21944;DHT22;11136;48.778;9.126;2023-04-01T14:34:34;11.40;99.90
21944;DHT22;11136;48.778;9.126;2023-04-01T14:37:13;11.30;99.90
21944;DHT22;11136;48.778;9.126;2023-04-01T14:48:56;11.20;99.90
21944;DHT22;11136;48.778;9.126;2023-04-01T14:51:29;11.20;99.90
21944;DHT22;11136;48.778;9.126;2023-04-01T14:54:08;11.20;99.90
21944;DHT22;11136;48.778;9.126;2023-04-01T14:59:09;11.30;99.90
21944;DHT22;11136;48.778;9.126;2023-04-01T15:01:44;11.30;99.90
21944;DHT22;11136;48.778;9.126;2023-04-01T15:04:26;11.30;99.90
21944;DHT22;11136;48.778;9.126;2023-04-01T15:07:07;11.30;99.90
21944;DHT22;11136;48.778;9.126;2023-04-01T15:09:46;11.30;99.90
21944;DHT22;11136;48.778;9.126;2023-04-01T15:12:40;11.50;99.90
21944;DHT22;11136;48.778;9.126;2023-04-01T15:15:29;11.30;99.90
21944;DHT22;11136;48.778;9.126;2023-04-01T15:18:05;11.30;99.90
21944;DHT22;11136;48.778;9.126;2023-04-01T15:21:11;11.30;99.90
21944;DHT22;11136;48.778;9.126;2023-04-01T15:24:00;11.40;99.90
21944;DHT22;11136;48.778;9.126;2023-04-01T15:31:59;11.40;99.90
21944;DHT22;11136;48.778;9.126;2023-04-01T15:34:41;11.40;99.90
21944;DHT22;11136;48.778;9.126;2023-04-01T15:43:00;11.40;99.90
21944;DHT22;11136;48.778;9.126;2023-04-01T15:45:47;11.50;99.90
21944;DHT22;11136;48.778;9.126;2023-04-01T15:53:56;11.50;99.90
21944;DHT22;11136;48.778;9.126;2023-04-01T15:56:44;11.50;99.90
21944;DHT22;11136;48.778;9.126;2023-04-01T16:02:22;11.50;99.90
21944;DHT22;11136;48.778;9.126;2023-04-01T16:04:59;11.50;99.90
21944;DHT22;11136;48.778;9.126;2023-04-01T16:08:00;11.50;99.90
21944;DHT22;11136;48.778;9.126;2023-04-01T16:11:08;11.50;99.90
21944;DHT22;11136;48.778;9.126;2023-04-01T16:13:42;11.50;99.90
21944;DHT22;11136;48.778;9.126;2023-04-01T16:16:44;11.50;99.90
21944;DHT22;11136;48.778;9.126;2023-04-01T16:22:07;11.40;99.90
21944;DHT22;11136;48.778;9.126;2023-04-01T16:25:26;11.40;99.90
21944;DHT22;11136;48.778;9.126;2023-04-01T16:28:22;11.30;99.90
21944;DHT22;11136;48.778;9.126;2023-04-01T16:31:03;11.30;99.90
21944;DHT22;11136;48.778;9.126;2023-04-01T16:36:39;11.30;99.90
21944;DHT22;11136;48.778;9.126;2023-04-01T16:44:48;11.30;99.90
21944;DHT22;11136;48.778;9.126;2023-04-01T16:47:19;11.30;99.90
21944;DHT22;11136;48.778;9.126;2023-04-01T16:49:57;11.30;99.90
21944;DHT22;11136;48.778;9.126;2023-04-01T16:52:35;11.30;99.90
21944;DHT22;11136;48.778;9.126;2023-04-01T16:55:14;11.40;99.90
21944;DHT22;11136;48.778;9.126;2023-04-01T16:57:48;11.40;99.90
21944;DHT22;11136;48.778;9.126;2023-04-01T17:00:22;11.40;99.90
21944;DHT22;11136;48.778;9.126;2023-04-01T17:11:16;11.40;99.90
21944;DHT22;11136;48.778;9.126;2023-04-01T17:13:57;11.40;99.90
21944;DHT22;11136;48.778;9.126;2023-04-01T17:19:25;11.40;99.90
21944;DHT22;11136;48.778;9.126;2023-04-01T17:25:04;11.30;99.90
21944;DHT22;11136;48.778;9.126;2023-04-01T17:33:03;11.30;99.90
21944;DHT22;11136;48.778;9.126;2023-04-01T17:35:43;11.30;99.90
21944;DHT22;11136;48.778;9.126;2023-04-01T17:41:07;11.20;99.90
21944;DHT22;11136;48.778;9.126;2023-04-01T17:49:23;11.30;99.90
21944;DHT22;11136;48.778;9.126;2023-04-01T17:52:25;11.30;99.90
21944;DHT22;11136;48.778;9.126;2023-04-01T17:54:56;11.30;99.90
21944;DHT22;11136;48.778;9.126;2023-04-01T18:00:17;11.30;99.90
21944;DHT22;11136;48.778;9.126;2023-04-01T18:10:38;11.30;99.90
21944;DHT22;11136;48.778;9.126;2023-04-01T18:16:19;11.20;99.90
21944;DHT22;11136;48.778;9.126;2023-04-01T18:19:08;11.20;99.90
21944;DHT22;11136;48.778;9.126;2023-04-01T18:21:53;11.20;99.90
21944;DHT22;11136;48.778;9.126;2023-04-01T18:27:03;11.10;99.90
21944;DHT22;11136;48.778;9.126;2023-04-01T18:29:48;11.00;99.90
21944;DHT22;11136;48.778;9.126;2023-04-01T18:32:26;11.00;99.90
21944;DHT22;11136;48.778;9.126;2023-04-01T18:35:12;10.90;99.90
21944;DHT22;11136;48.778;9.126;2023-04-01T18:40:31;10.70;99.90
21944;DHT22;11136;48.778;9.126;2023-04-01T18:45:51;10.70;99.90
21944;DHT22;11136;48.778;9.126;2023-04-01T18:48:50;10.60;99.90
21944;DHT22;11136;48.778;9.126;2023-04-01T18:51:21;10.60;99.90
21944;DHT22;11136;48.778;9.126;2023-04-01T18:54:05;10.50;99.90
21944;DHT22;11136;48.778;9.126;2023-04-01T18:56:44;10.80;99.90
21944;DHT22;11136;48.778;9.126;2023-04-01T18:59:25;10.40;99.90
21944;DHT22;11136;48.778;9.126;2023-04-01T19:02:14;10.40;99.90
21944;DHT22;11136;48.778;9.126;2023-04-01T19:04:43;10.40;99.90
21944;DHT22;11136;48.778;9.126;2023-04-01T19:07:39;10.40;99.90
21944;DHT22;11136;48.778;9.126;2023-04-01T19:10:45;10.30;99.90
21944;DHT22;11136;48.778;9.126;2023-04-01T19:13:40;10.30;99.90
21944;DHT22;11136;48.778;9.126;2023-04-01T19:19:03;10.20;99.90
21944;DHT22;11136;48.778;9.126;2023-04-01T19:21:41;10.20;99.90
21944;DHT22;11136;48.778;9.126;2023-04-01T19:35:35;10.10;99.90
21944;DHT22;11136;48.778;9.126;2023-04-01T19:38:16;10.10;99.90
21944;DHT22;11136;48.778;9.126;2023-04-01T19:40:51;10.00;99.90
21944;DHT22;11136;48.778;9.126;2023-04-01T19:51:51;10.00;99.90
21944;DHT22;11136;48.778;9.126;2023-04-01T19:57:48;9.90;99.90
21944;DHT22;11136;48.778;9.126;2023-04-01T20:00:24;9.90;99.90
21944;DHT22;11136;48.778;9.126;2023-04-01T20:11:19;9.90;99.90
21944;DHT22;11136;48.778;9.126;2023-04-01T20:16:21;10.00;99.90
21944;DHT22;11136;48.778;9.126;2023-04-01T20:19:01;10.00;99.90
21944;DHT22;11136;48.778;9.126;2023-04-01T20:21:35;10.00;99.90
21944;DHT22;11136;48.778;9.126;2023-04-01T20:26:42;10.00;99.90
21944;DHT22;11136;48.778;9.126;2023-04-01T20:32:06;10.00;99.90
21944;DHT22;11136;48.778;9.126;2023-04-01T20:37:49;10.00;99.90
21944;DHT22;11136;48.778;9.126;2023-04-01T20:43:11;10.00;99.90
21944;DHT22;11136;48.778;9.126;2023-04-01T20:45:52;10.00;99.90
21944;DHT22;11136;48.778;9.126;2023-04-01T20:51:32;10.00;99.90
21944;DHT22;11136;48.778;9.126;2023-04-01T20:54:23;10.00;99.90
21944;DHT22;11136;48.778;9.126;2023-04-01T20:59:37;10.10;99.90
21944;DHT22;11136;48.778;9.126;2023-04-01T21:11:41;10.00;99.90
21944;DHT22;11136;48.778;9.126;2023-04-01T21:13:49;10.00;99.90
21944;DHT22;11136;48.778;9.126;2023-04-01T21:16:38;10.00;99.90
21944;DHT22;11136;48.778;9.126;2023-04-01T21:22:14;9.90;99.90
21944;DHT22;11136;48.778;9.126;2023-04-01T21:25:30;10.00;99.90
21944;DHT22;11136;48.778;9.126;2023-04-01T21:31:05;9.90;99.90
21944;DHT22;11136;48.778;9.126;2023-04-01T21:33:41;9.90;99.90
21944;DHT22;11136;48.778;9.126;2023-04-01T21:50:26;9.90;99.90
21944;DHT22;11136;48.778;9.126;2023-04-01T21:58:53;9.80;99.90
21944;DHT22;11136;48.778;9.126;2023-04-01T22:01:35;9.80;99.90
21944;DHT22;11136;48.778;9.126;2023-04-01T22:07:13;9.80;99.90
21944;DHT22;11136;48.778;9.126;2023-04-01T22:15:23;9.70;99.90
21944;DHT22;11136;48.778;9.126;2023-04-01T22:18:06;9.70;99.90
21944;DHT22;11136;48.778;9.126;2023-04-01T22:26:16;9.70;99.90
21944;DHT22;11136;48.778;9.126;2023-04-01T22:29:20;9.70;99.90
21944;DHT22;11136;48.778;9.126;2023-04-01T22:37:39;9.70;99.90
21944;DHT22;11136;48.778;9.126;2023-04-01T22:40:21;9.70;99.90
21944;DHT22;11136;48.778;9.126;2023-04-01T22:43:01;9.70;99.90
21944;DHT22;11136;48.778;9.126;2023-04-01T22:48:01;9.70;99.90
21944;DHT22;11136;48.778;9.126;2023-04-01T22:50:58;9.70;99.90
21944;DHT22;11136;48.778;9.126;2023-04-01T22:56:09;9.70;99.90
21944;DHT22;11136;48.778;9.126;2023-04-01T22:59:43;9.70;99.90
21944;DHT22;11136;48.778;9.126;2023-04-01T23:01:42;9.70;99.90
21944;DHT22;11136;48.778;9.126;2023-04-01T23:04:14;9.60;99.90
21944;DHT22;11136;48.778;9.126;2023-04-01T23:06:49;9.60;99.90
21944;DHT22;11136;48.778;9.126;2023-04-01T23:09:28;9.70;99.90
21944;DHT22;11136;48.778;9.126;2023-04-01T23:12:05;9.60;99.90
21944;DHT22;11136;48.778;9.126;2023-04-01T23:14:39;9.60;99.90
21944;DHT22;11136;48.778;9.126;2023-04-01T23:17:25;9.60;99.90
21944;DHT22;11136;48.778;9.126;2023-04-01T23:20:06;9.60;99.90
21944;DHT22;11136;48.778;9.126;2023-04-01T23:22:43;9.60;99.90
21944;DHT22;11136;48.778;9.126;2023-04-01T23:25:40;9.60;99.90
21944;DHT22;11136;48.778;9.126;2023-04-01T23:31:28;9.60;99.90
21944;DHT22;11136;48.778;9.126;2023-04-01T23:33:59;9.50;99.90
21944;DHT22;11136;48.778;9.126;2023-04-01T23:36:26;9.50;99.90
21944;DHT22;11136;48.778;9.126;2023-04-01T23:38:52;9.50;99.90
21944;DHT22;11136;48.778;9.126;2023-04-01T23:41:22;9.50;99.90
21944;DHT22;11136;48.778;9.126;2023-04-01T23:44:15;9.50;99.90
21944;DHT22;11136;48.778;9.126;2023-04-01T23:46:42;9.50;99.90
21944;DHT22;11136;48.778;9.126;2023-04-01T23:49:18;9.50;99.90
21944;DHT22;11136;48.778;9.126;2023-04-01T23:52:02;9.40;99.90
21944;DHT22;11136;48.778;9.126;2023-04-01T23:54:33;9.50;99.90
21944;DHT22;11136;48.778;9.126;2023-04-01T23:56:59;9.40;99.90
21944;DHT22;11136;48.778;9.126;2023-04-01T23:59:32;9.40;99.90
